This is the latest recevied weather packets stored in our database for station/object BMCB-38. If no packets are shown the sender has not sent any weather packets the latest 10 day(s).
| Time | Temp. | Humidity | Pressure | Rain* | Wind** | Luminosity | Snow |
|---|---|---|---|---|---|---|---|
| 1777216236 | 16.67° C | 46% | 1023.6 hPa | 0 mm | - | 482 W/m² | - |
| 1777215035 | 16.67° C | 43% | 1023.8 hPa | 0 mm | - | 544 W/m² | - |
| 1777210837 | 16.11° C | 49% | 1024.2 hPa | 0 mm | - | 662 W/m² | - |
| 1777210237 | 16.11° C | 50% | 1024.3 hPa | 0 mm | - | 692 W/m² | - |
| 1777199434 | 13.89° C | 62% | 1025 hPa | 0 mm | - | 712 W/m² | - |
| 1777198234 | 12.78° C | 65% | 1025.1 hPa | 0 mm | - | 690 W/m² | - |
| 1777197034 | 12.78° C | 67% | 1025.1 hPa | 0 mm | - | 608 W/m² | - |
| 1777195837 | 11.67° C | 67% | 1025.2 hPa | 0 mm | - | 632 W/m² | - |
| 1777191035 | 10° C | 77% | 1025.4 hPa | 0 mm | - | 454 W/m² | - |
| 1777190439 | 9.44° C | 79% | 1025.4 hPa | 0 mm | - | 430 W/m² | - |
| 1777189836 | 8.89° C | 80% | 1025.5 hPa | 0 mm | - | 404 W/m² | - |
| 1777185038 | 6.11° C | 85% | 1025.5 hPa | 0 mm | - | 74 W/m² | - |
| 1777180235 | 5° C | 85% | 1024.9 hPa | 0 mm | - | 26 W/m² | - |
| 1777176036 | 5.56° C | 77% | 1024.3 hPa | 0 mm | - | 0 W/m² | - |
| 1777174235 | 5.56° C | 73% | 1024.2 hPa | 0 mm | - | 0 W/m² | - |
| 1777173036 | 6.11° C | 71% | 1024.1 hPa | 0 mm | - | 0 W/m² | - |
| 1777167039 | 6.67° C | 71% | 1023.7 hPa | 0 mm | - | 0 W/m² | - |
| 1777156236 | 9.44° C | 57% | 1022.9 hPa | 0 mm | - | 0 W/m² | - |
| 1777151436 | 11.11° C | 51% | 1022.3 hPa | 0 mm | - | 0 W/m² | - |
| 1777149038 | 11.67° C | 53% | 1022 hPa | 0 mm | - | 0 W/m² | - |
| 1777147840 | 12.22° C | 50% | 1021.9 hPa | 0 mm | - | 0 W/m² | - |
| 1777146036 | 13.33° C | 47% | 1021.6 hPa | 0 mm | - | 0 W/m² | - |
| 1777141234 | 15° C | 38% | 1020.7 hPa | 0 mm | - | 24 W/m² | - |
| 1777140637 | 15.56° C | 37% | 1020.8 hPa | 0 mm | - | 36 W/m² | - |
| 1777132837 | 17.22° C | 29% | 1020.2 hPa | 0 mm | - | 392 W/m² | - |
* Rain latest hour (hover to see other rain measurements)
** Current wind speed in m/s (hover to see current wind gust speed)